createdAt,value
2018-05-04T00:00:59.276Z,17.20
2018-05-04T00:03:28.617Z,17.20
2018-05-04T00:05:57.580Z,17.10
2018-05-04T00:08:26.180Z,17.10
2018-05-04T00:10:55.656Z,17.00
2018-05-04T00:13:23.859Z,17.00
2018-05-04T00:15:52.424Z,17.00
2018-05-04T00:18:20.795Z,17.00
2018-05-04T00:20:48.972Z,17.00
2018-05-04T00:23:17.184Z,17.00
2018-05-04T00:25:45.381Z,17.00
2018-05-04T00:28:13.620Z,16.90
2018-05-04T00:30:43.375Z,16.90
2018-05-04T00:33:12.507Z,16.90
2018-05-04T00:35:41.004Z,16.80
2018-05-04T00:38:09.204Z,16.80
2018-05-04T00:40:37.406Z,16.90
2018-05-04T00:43:05.855Z,16.80
2018-05-04T00:45:34.960Z,16.80
2018-05-04T00:48:03.983Z,16.80
2018-05-04T00:50:32.185Z,16.80
2018-05-04T00:53:00.385Z,16.70
2018-05-04T00:55:29.501Z,16.70
2018-05-04T00:57:58.468Z,16.60
2018-05-04T01:00:27.037Z,16.60
2018-05-04T01:02:56.752Z,16.60
2018-05-04T01:05:25.416Z,16.50
2018-05-04T01:07:54.193Z,16.50
2018-05-04T01:10:22.727Z,16.50
2018-05-04T01:12:51.569Z,16.50
2018-05-04T01:15:19.844Z,16.50
2018-05-04T01:17:48.056Z,16.40
2018-05-04T01:20:16.273Z,16.40
2018-05-04T01:22:44.477Z,16.40
2018-05-04T01:25:12.720Z,16.40
2018-05-04T01:27:40.956Z,16.30
2018-05-04T01:30:09.143Z,16.30
2018-05-04T01:32:38.041Z,16.20
2018-05-04T01:35:06.237Z,16.30
2018-05-04T01:37:36.767Z,16.20
2018-05-04T01:40:04.964Z,16.20
2018-05-04T01:42:33.603Z,16.30
2018-05-04T01:45:01.910Z,16.10
2018-05-04T01:47:31.398Z,16.10
2018-05-04T01:50:00.137Z,16.10
2018-05-04T01:52:28.374Z,16.10
2018-05-04T01:55:05.451Z,16.10
2018-05-04T01:57:34.688Z,16.10
2018-05-04T02:00:03.411Z,16.10
2018-05-04T02:02:31.693Z,16.10
2018-05-04T02:05:00.183Z,16.10
2018-05-04T02:07:29.088Z,16.00
2018-05-04T02:09:58.410Z,16.00
2018-05-04T02:12:27.053Z,16.00
2018-05-04T02:14:55.251Z,16.00
2018-05-04T02:17:23.465Z,16.00
2018-05-04T02:19:52.064Z,16.00
2018-05-04T02:22:20.259Z,15.90
2018-05-04T02:24:48.456Z,15.90
2018-05-04T02:27:16.944Z,15.90
2018-05-04T02:29:45.909Z,15.90
2018-05-04T02:32:14.728Z,15.80
2018-05-04T02:34:43.705Z,15.80
2018-05-04T02:37:12.360Z,15.80
2018-05-04T02:39:40.965Z,15.80
2018-05-04T02:42:10.325Z,15.70
2018-05-04T02:44:39.676Z,15.70
2018-05-04T02:47:08.431Z,15.70
2018-05-04T02:49:36.945Z,15.70
2018-05-04T02:52:05.156Z,15.70
2018-05-04T02:54:33.756Z,15.70
2018-05-04T02:57:03.863Z,15.60
2018-05-04T02:59:33.544Z,15.60
2018-05-04T03:02:01.744Z,15.60
2018-05-04T03:04:31.436Z,15.70
2018-05-04T03:06:59.637Z,15.70
2018-05-04T03:09:27.840Z,15.70
2018-05-04T03:11:56.380Z,15.60
2018-05-04T03:14:25.386Z,15.60
2018-05-04T03:16:54.552Z,15.50
2018-05-04T03:19:22.753Z,15.50
2018-05-04T03:21:52.292Z,15.50
2018-05-04T03:24:20.814Z,15.50
2018-05-04T03:26:49.396Z,15.50
2018-05-04T03:29:17.595Z,15.50
2018-05-04T03:31:46.255Z,15.40
2018-05-04T03:34:14.436Z,15.40
2018-05-04T03:36:43.025Z,15.50
2018-05-04T03:39:11.233Z,15.50
2018-05-04T03:41:40.812Z,15.40
2018-05-04T03:44:09.009Z,15.40
2018-05-04T03:46:38.308Z,15.50
2018-05-04T03:49:07.576Z,15.40
2018-05-04T03:51:36.111Z,15.40
2018-05-04T03:54:04.952Z,15.40
2018-05-04T03:56:34.496Z,15.40
2018-05-04T03:59:15.179Z,15.40
2018-05-04T04:01:55.880Z,15.40
2018-05-04T04:04:24.080Z,15.30
2018-05-04T04:06:53.025Z,15.30
2018-05-04T04:09:21.220Z,15.30
2018-05-04T04:11:50.644Z,15.30
2018-05-04T04:14:19.648Z,15.30
2018-05-04T04:16:47.844Z,15.30
2018-05-04T04:19:16.044Z,15.30
2018-05-04T04:21:45.142Z,15.30
2018-05-04T04:24:13.364Z,15.30
2018-05-04T04:26:41.560Z,15.30
2018-05-04T04:29:09.768Z,15.40
2018-05-04T04:31:39.018Z,15.40
2018-05-04T04:34:07.224Z,15.40
2018-05-04T04:36:36.290Z,15.40
2018-05-04T04:39:04.487Z,15.40
2018-05-04T04:41:37.361Z,15.40
2018-05-04T04:44:05.560Z,15.40
2018-05-04T04:46:34.947Z,15.30
2018-05-04T04:49:04.357Z,15.30
2018-05-04T04:51:32.814Z,15.30
2018-05-04T04:54:01.700Z,15.40
2018-05-04T04:56:30.290Z,15.40
2018-05-04T04:58:58.500Z,15.40
2018-05-04T05:01:27.892Z,15.40
2018-05-04T05:03:56.918Z,15.40
2018-05-04T05:06:25.661Z,15.40
2018-05-04T05:08:53.867Z,15.50
2018-05-04T05:11:22.923Z,15.50
2018-05-04T05:13:51.149Z,15.50
2018-05-04T05:16:19.800Z,15.50
2018-05-04T05:18:48.014Z,15.50
2018-05-04T05:21:16.291Z,15.60
2018-05-04T05:23:44.522Z,15.50
2018-05-04T05:26:12.696Z,15.60
2018-05-04T05:28:40.903Z,15.60
2018-05-04T05:31:09.212Z,15.50
2018-05-04T05:33:37.461Z,15.50
2018-05-04T05:36:06.724Z,15.60
2018-05-04T05:38:34.927Z,15.60
2018-05-04T05:41:04.084Z,15.60
2018-05-04T05:43:32.700Z,15.60
2018-05-04T05:46:01.768Z,15.70
2018-05-04T05:48:30.468Z,15.70
2018-05-04T05:50:58.736Z,15.70
2018-05-04T05:53:26.949Z,15.70
2018-05-04T05:55:55.700Z,15.70
2018-05-04T05:58:23.945Z,15.70
2018-05-04T06:00:52.456Z,15.70
2018-05-04T06:03:21.383Z,15.80
2018-05-04T06:05:50.348Z,15.80
2018-05-04T06:08:18.619Z,15.80
2018-05-04T06:10:47.203Z,15.80
2018-05-04T06:13:15.800Z,15.90
2018-05-04T06:15:44.455Z,15.90
2018-05-04T06:18:12.649Z,15.90
2018-05-04T06:20:40.904Z,16.00
2018-05-04T06:23:09.445Z,16.00
2018-05-04T06:25:38.590Z,16.00
2018-05-04T06:28:06.797Z,16.00
2018-05-04T06:30:35.688Z,16.10
2018-05-04T06:33:03.896Z,16.20
2018-05-04T06:35:32.328Z,16.20
2018-05-04T06:38:01.151Z,16.20
2018-05-04T06:40:30.121Z,16.30
2018-05-04T06:42:58.695Z,16.20
2018-05-04T06:45:27.633Z,16.30
2018-05-04T06:47:56.959Z,16.40
2018-05-04T06:50:25.157Z,16.40
2018-05-04T06:52:53.387Z,16.50
2018-05-04T06:55:22.363Z,16.60
2018-05-04T06:57:51.331Z,16.90
2018-05-04T07:00:19.763Z,16.90
2018-05-04T07:02:48.268Z,17.00
2018-05-04T07:05:16.458Z,17.10
2018-05-04T07:07:44.661Z,17.20
2018-05-04T07:10:13.779Z,17.30
2018-05-04T07:12:43.142Z,17.60
2018-05-04T07:15:11.475Z,17.60
2018-05-04T07:17:39.908Z,17.60
2018-05-04T07:20:08.104Z,17.70
2018-05-04T07:22:37.212Z,17.90
2018-05-04T07:25:06.888Z,17.90
2018-05-04T07:27:36.240Z,17.90
2018-05-04T07:30:05.328Z,18.10
2018-05-04T07:32:33.719Z,18.20
2018-05-04T07:35:01.931Z,18.30
2018-05-04T07:37:30.913Z,18.40
2018-05-04T07:39:59.111Z,18.50
2018-05-04T07:42:27.702Z,18.70
2018-05-04T07:44:56.124Z,18.70
2018-05-04T07:47:24.672Z,18.80
2018-05-04T07:49:52.903Z,18.90
2018-05-04T07:52:21.111Z,19.00
2018-05-04T07:54:49.327Z,19.10
2018-05-04T07:57:17.983Z,19.20
2018-05-04T07:59:46.472Z,19.20
2018-05-04T08:02:14.671Z,19.30
2018-05-04T08:04:43.452Z,19.50
2018-05-04T08:07:12.424Z,19.60
2018-05-04T08:09:48.045Z,19.60
2018-05-04T08:12:16.824Z,19.70
2018-05-04T08:14:45.544Z,19.70
2018-05-04T08:17:14.056Z,19.90
2018-05-04T08:19:43.223Z,20.10
2018-05-04T08:22:11.852Z,20.10
2018-05-04T08:24:40.061Z,20.30
2018-05-04T08:27:08.257Z,20.40
2018-05-04T08:29:36.660Z,20.60
2018-05-04T08:32:05.533Z,20.80
2018-05-04T08:34:33.731Z,20.90
2018-05-04T08:37:02.530Z,21.10
2018-05-04T08:39:30.993Z,21.20
2018-05-04T08:41:59.645Z,21.30
2018-05-04T08:44:27.841Z,21.40
2018-05-04T08:47:01.981Z,21.50
2018-05-04T08:49:30.946Z,21.70
2018-05-04T08:51:59.155Z,21.60
2018-05-04T08:54:28.474Z,21.70
2018-05-04T08:56:56.657Z,21.70
2018-05-04T08:59:25.239Z,21.70
2018-05-04T09:02:01.850Z,21.90
2018-05-04T09:04:30.536Z,22.10
2018-05-04T09:06:58.746Z,22.20
2018-05-04T09:09:26.950Z,22.30
2018-05-04T09:11:55.577Z,22.30
2018-05-04T09:14:24.282Z,22.40
2018-05-04T09:16:52.552Z,22.50
2018-05-04T09:19:20.759Z,22.60
2018-05-04T09:21:49.332Z,22.80
2018-05-04T09:24:18.729Z,22.80
2018-05-04T09:26:46.921Z,22.80
2018-05-04T09:29:15.904Z,22.90
2018-05-04T09:31:44.693Z,22.90
2018-05-04T09:34:13.748Z,23.00
2018-05-04T09:36:42.621Z,23.00
2018-05-04T09:39:18.797Z,23.00
2018-05-04T09:41:47.670Z,22.80
2018-05-04T09:44:15.871Z,22.90
2018-05-04T09:46:44.075Z,23.00
2018-05-04T09:49:12.636Z,23.10
2018-05-04T09:51:40.860Z,23.10
2018-05-04T09:54:09.824Z,23.10
2018-05-04T09:56:38.824Z,23.10
2018-05-04T09:59:07.030Z,23.10
2018-05-04T10:01:35.589Z,23.10
2018-05-04T10:04:04.468Z,23.00
2018-05-04T10:06:32.680Z,23.00
2018-05-04T10:09:00.880Z,22.90
2018-05-04T10:11:29.692Z,22.90
2018-05-04T10:13:57.900Z,22.90
2018-05-04T10:16:26.456Z,22.80
2018-05-04T10:18:55.053Z,22.80
2018-05-04T10:21:23.258Z,22.70
2018-05-04T10:23:51.805Z,22.70
2018-05-04T10:26:20.005Z,22.60
2018-05-04T10:28:48.975Z,22.60
2018-05-04T10:31:18.104Z,22.60
2018-05-04T10:33:47.194Z,22.60
2018-05-04T10:36:16.473Z,22.60
2018-05-04T10:38:45.955Z,22.60
2018-05-04T10:41:14.182Z,22.50
2018-05-04T10:43:42.449Z,22.60
2018-05-04T10:46:11.676Z,22.50
2018-05-04T10:48:39.953Z,22.50
2018-05-04T10:51:08.147Z,22.50
2018-05-04T10:53:36.352Z,22.50
2018-05-04T10:56:12.631Z,22.50
2018-05-04T10:58:40.815Z,22.50
2018-05-04T11:01:10.129Z,22.50
2018-05-04T11:03:39.096Z,22.50
2018-05-04T11:06:07.406Z,22.50
2018-05-04T11:08:35.625Z,22.50
2018-05-04T11:11:09.452Z,22.50
2018-05-04T11:13:37.761Z,22.50
2018-05-04T11:16:06.446Z,22.60
2018-05-04T11:18:34.627Z,22.60
2018-05-04T11:21:03.584Z,22.70
2018-05-04T11:23:31.792Z,22.70
2018-05-04T11:26:00.465Z,22.80
2018-05-04T11:28:29.448Z,22.70
2018-05-04T11:30:58.450Z,22.70
2018-05-04T11:33:27.332Z,22.70
2018-05-04T11:35:56.265Z,22.70
2018-05-04T11:38:24.560Z,22.70
2018-05-04T11:40:52.827Z,22.70
2018-05-04T11:43:21.448Z,22.70
2018-05-04T11:45:50.417Z,22.70
2018-05-04T11:48:19.248Z,22.70
2018-05-04T11:50:47.458Z,22.70
2018-05-04T11:53:16.003Z,22.80
2018-05-04T11:55:44.901Z,22.80
2018-05-04T11:58:13.747Z,22.80
2018-05-04T12:00:50.261Z,22.80
2018-05-04T12:03:18.529Z,22.80
2018-05-04T12:05:48.720Z,22.80
2018-05-04T12:08:17.064Z,22.80
2018-05-04T12:10:45.548Z,22.90
2018-05-04T12:13:13.999Z,22.90
2018-05-04T12:15:42.676Z,23.00
2018-05-04T12:18:10.880Z,23.00
2018-05-04T12:20:39.079Z,23.00
2018-05-04T12:23:07.497Z,23.00
2018-05-04T12:25:36.293Z,23.00
2018-05-04T12:28:04.462Z,23.00
2018-05-04T12:30:34.231Z,23.00
2018-05-04T12:33:03.584Z,22.90
2018-05-04T12:35:32.186Z,22.90
2018-05-04T12:38:00.384Z,23.00
2018-05-04T12:40:29.382Z,23.00
2018-05-04T12:42:58.862Z,23.10
2018-05-04T12:45:27.088Z,23.00
2018-05-04T12:47:55.671Z,23.10
2018-05-04T12:50:23.868Z,23.10
2018-05-04T12:52:52.667Z,23.20
2018-05-04T12:55:21.612Z,23.10
2018-05-04T12:57:49.956Z,23.10
2018-05-04T13:00:19.109Z,23.10
2018-05-04T13:02:47.960Z,23.10
2018-05-04T13:05:19.305Z,23.20
2018-05-04T13:07:48.344Z,23.20
2018-05-04T13:10:16.904Z,23.20
2018-05-04T13:12:45.374Z,23.20
2018-05-04T13:15:13.952Z,23.20
2018-05-04T13:17:43.872Z,23.30
2018-05-04T13:20:12.971Z,23.30
2018-05-04T13:22:42.680Z,23.30
2018-05-04T13:25:11.656Z,23.40
2018-05-04T13:27:40.266Z,23.40
2018-05-04T13:30:10.376Z,23.40
2018-05-04T13:32:40.237Z,23.40
2018-05-04T13:35:08.441Z,23.30
2018-05-04T13:37:36.776Z,23.40
2018-05-04T13:40:04.972Z,23.50
2018-05-04T13:42:33.275Z,23.60
2018-05-04T13:45:01.484Z,23.60
2018-05-04T13:47:38.885Z,23.60
2018-05-04T13:50:07.311Z,23.60
2018-05-04T13:52:36.071Z,23.50
2018-05-04T13:55:04.296Z,23.50
2018-05-04T13:57:32.776Z,23.50
2018-05-04T14:00:05.252Z,23.50
2018-05-04T14:02:33.454Z,23.50
2018-05-04T14:05:02.040Z,23.50
2018-05-04T14:07:31.008Z,23.60
2018-05-04T14:09:59.812Z,23.60
2018-05-04T14:12:29.500Z,23.90
2018-05-04T14:14:58.040Z,23.90
2018-05-04T14:17:26.623Z,24.00
2018-05-04T14:19:54.806Z,24.10
2018-05-04T14:22:23.017Z,24.20
2018-05-04T14:24:51.238Z,24.20
2018-05-04T14:27:19.695Z,24.30
2018-05-04T14:29:47.896Z,24.50
2018-05-04T14:32:16.296Z,24.50
2018-05-04T14:34:44.509Z,24.60
2018-05-04T14:37:12.990Z,24.70
2018-05-04T14:39:42.029Z,24.70
2018-05-04T14:42:10.473Z,24.70
2018-05-04T14:44:38.736Z,24.80
2018-05-04T14:47:07.435Z,24.70
2018-05-04T14:49:35.745Z,24.80
2018-05-04T14:52:05.613Z,24.80
2018-05-04T14:54:35.664Z,24.80
2018-05-04T14:57:04.739Z,24.80
2018-05-04T14:59:33.302Z,24.80
2018-05-04T15:02:01.838Z,24.70
2018-05-04T15:04:30.594Z,24.70
2018-05-04T15:06:58.794Z,24.50
2018-05-04T15:09:26.997Z,24.30
2018-05-04T15:11:55.754Z,24.40
2018-05-04T15:14:24.495Z,24.40
2018-05-04T15:16:53.252Z,24.20
2018-05-04T15:19:21.564Z,24.10
2018-05-04T15:21:50.268Z,24.20
2018-05-04T15:24:18.487Z,24.30
2018-05-04T15:26:47.977Z,24.40
2018-05-04T15:29:17.557Z,24.40
2018-05-04T15:31:46.896Z,24.40
2018-05-04T15:34:16.392Z,24.40
2018-05-04T15:36:45.700Z,24.40
2018-05-04T15:39:14.775Z,24.40
2018-05-04T15:41:43.243Z,24.30
2018-05-04T15:44:11.445Z,24.40
2018-05-04T15:46:39.650Z,24.40
2018-05-04T15:49:15.176Z,24.30
2018-05-04T15:51:50.056Z,24.30
2018-05-04T15:54:18.258Z,24.20
2018-05-04T15:56:46.457Z,24.20
2018-05-04T15:59:15.439Z,24.20
2018-05-04T16:01:43.716Z,24.20
2018-05-04T16:04:11.942Z,24.20
2018-05-04T16:06:40.150Z,24.20
2018-05-04T16:09:08.679Z,24.10
2018-05-04T16:11:37.763Z,24.10
2018-05-04T16:14:06.556Z,24.00
2018-05-04T16:16:35.976Z,23.90
2018-05-04T16:19:04.177Z,23.90
2018-05-04T16:21:32.505Z,23.90
2018-05-04T16:24:01.490Z,23.80
2018-05-04T16:26:30.460Z,23.70
2018-05-04T16:28:58.680Z,23.70
2018-05-04T16:31:27.440Z,23.70
2018-05-04T16:33:55.921Z,23.70
2018-05-04T16:36:24.417Z,23.50
2018-05-04T16:38:53.544Z,23.30
2018-05-04T16:41:36.549Z,23.30
2018-05-04T16:44:05.307Z,23.30
2018-05-04T16:46:40.148Z,23.30
2018-05-04T16:49:14.424Z,23.20
2018-05-04T16:51:42.640Z,23.20
2018-05-04T16:54:11.564Z,23.10
2018-05-04T16:56:40.519Z,23.00
2018-05-04T16:59:08.717Z,23.00
2018-05-04T17:01:37.321Z,23.00
2018-05-04T17:04:06.981Z,22.90
2018-05-04T17:06:35.188Z,22.80
2018-05-04T17:09:03.441Z,22.70
2018-05-04T17:11:32.053Z,22.70
2018-05-04T17:14:00.567Z,22.70
2018-05-04T17:16:28.910Z,22.60
2018-05-04T17:18:57.881Z,22.60
2018-05-04T17:21:26.243Z,22.60
2018-05-04T17:23:54.560Z,22.50
2018-05-04T17:26:23.864Z,22.40
2018-05-04T17:28:53.024Z,22.30
2018-05-04T17:31:21.556Z,22.30
2018-05-04T17:33:50.032Z,22.20
2018-05-04T17:36:19.336Z,22.20
2018-05-04T17:38:48.322Z,22.10
2018-05-04T17:41:16.909Z,22.10
2018-05-04T17:43:45.976Z,21.90
2018-05-04T17:46:14.216Z,21.90
2018-05-04T17:48:43.027Z,21.80
2018-05-04T17:51:11.281Z,21.70
2018-05-04T17:53:39.489Z,21.70
2018-05-04T17:56:08.000Z,21.60
2018-05-04T17:58:36.652Z,21.60
2018-05-04T18:01:05.379Z,21.50
2018-05-04T18:03:33.720Z,21.30
2018-05-04T18:06:02.450Z,21.30
2018-05-04T18:08:30.786Z,21.20
2018-05-04T18:10:59.391Z,21.10
2018-05-04T18:13:28.176Z,21.10
2018-05-04T18:15:56.920Z,21.00
2018-05-04T18:18:25.128Z,20.90
2018-05-04T18:20:53.328Z,20.90
2018-05-04T18:23:22.311Z,20.80
2018-05-04T18:25:50.969Z,20.80
2018-05-04T18:28:19.172Z,20.70
2018-05-04T18:30:47.747Z,20.60
2018-05-04T18:33:16.256Z,20.60
2018-05-04T18:35:45.568Z,20.30
2018-05-04T18:38:14.715Z,20.30
2018-05-04T18:40:43.348Z,20.30
2018-05-04T18:43:12.437Z,20.20
2018-05-04T18:45:41.419Z,20.20
2018-05-04T18:48:11.284Z,20.10
2018-05-04T18:50:39.728Z,20.10
2018-05-04T18:53:08.833Z,20.00
2018-05-04T18:55:38.948Z,19.90
2018-05-04T18:58:07.925Z,19.90
2018-05-04T19:00:36.562Z,19.90
2018-05-04T19:03:11.029Z,19.80
2018-05-04T19:05:40.740Z,19.70
2018-05-04T19:08:10.018Z,19.70
2018-05-04T19:10:39.994Z,19.60
2018-05-04T19:13:08.590Z,19.60
2018-05-04T19:15:38.248Z,19.60
2018-05-04T19:18:06.747Z,19.60
2018-05-04T19:20:36.078Z,19.40
2018-05-04T19:23:05.709Z,19.30
2018-05-04T19:25:34.735Z,19.30
2018-05-04T19:28:02.949Z,19.30
2018-05-04T19:30:31.692Z,19.20
2018-05-04T19:33:00.060Z,19.20
2018-05-04T19:35:32.598Z,19.10
2018-05-04T19:38:01.576Z,19.10
2018-05-04T19:40:30.545Z,19.10
2018-05-04T19:42:58.919Z,19.10
2018-05-04T19:45:27.408Z,19.10
2018-05-04T19:47:55.711Z,19.10
2018-05-04T19:50:24.677Z,19.00
2018-05-04T19:52:53.629Z,19.00
2018-05-04T19:55:22.352Z,18.90
2018-05-04T19:57:50.592Z,18.80
2018-05-04T20:00:21.800Z,18.80
2018-05-04T20:02:50.908Z,18.70
2018-05-04T20:05:19.126Z,18.70
2018-05-04T20:07:47.373Z,18.70
2018-05-04T20:10:16.391Z,18.70
2018-05-04T20:12:44.997Z,18.60
2018-05-04T20:15:14.109Z,18.60
2018-05-04T20:17:42.309Z,18.60
2018-05-04T20:20:10.867Z,18.60
2018-05-04T20:22:39.068Z,18.60
2018-05-04T20:25:08.048Z,18.50
2018-05-04T20:27:36.304Z,18.50
2018-05-04T20:30:04.860Z,18.50
2018-05-04T20:32:33.112Z,18.40
2018-05-04T20:35:01.649Z,18.40
2018-05-04T20:37:29.937Z,18.40
2018-05-04T20:39:58.134Z,18.30
2018-05-04T20:42:27.598Z,18.30
2018-05-04T20:44:56.540Z,18.30
2018-05-04T20:47:25.100Z,18.30
2018-05-04T20:49:53.915Z,18.30
2018-05-04T20:52:22.832Z,18.20
2018-05-04T20:54:51.580Z,18.10
2018-05-04T20:57:20.552Z,18.10
2018-05-04T20:59:48.772Z,18.10
2018-05-04T21:02:17.715Z,18.00
2018-05-04T21:04:47.345Z,17.90
2018-05-04T21:07:15.519Z,17.90
2018-05-04T21:09:51.236Z,17.90
2018-05-04T21:12:19.433Z,17.80
2018-05-04T21:14:47.923Z,17.90
2018-05-04T21:17:16.644Z,17.90
2018-05-04T21:19:44.840Z,17.80
2018-05-04T21:22:13.347Z,17.80
2018-05-04T21:24:41.881Z,17.80
2018-05-04T21:27:10.118Z,17.80
2018-05-04T21:29:42.796Z,17.80
2018-05-04T21:32:11.055Z,17.70
2018-05-04T21:34:40.034Z,17.70
2018-05-04T21:37:11.164Z,17.70
2018-05-04T21:39:39.367Z,17.70
2018-05-04T21:42:08.194Z,17.70
2018-05-04T21:44:36.463Z,17.70
2018-05-04T21:47:05.053Z,17.70
2018-05-04T21:49:34.055Z,17.60
2018-05-04T21:52:03.038Z,17.50
2018-05-04T21:54:31.705Z,17.50
2018-05-04T21:56:59.873Z,17.50
2018-05-04T21:59:28.074Z,17.50
2018-05-04T22:01:56.696Z,17.50
2018-05-04T22:04:26.060Z,17.50
2018-05-04T22:06:54.253Z,17.50
2018-05-04T22:09:23.240Z,17.40
2018-05-04T22:11:52.205Z,17.40
2018-05-04T22:14:24.378Z,17.40
2018-05-04T22:16:57.281Z,17.20
2018-05-04T22:19:25.513Z,17.30
2018-05-04T22:22:01.146Z,17.30
2018-05-04T22:24:35.197Z,17.30
2018-05-04T22:27:03.398Z,17.30
2018-05-04T22:29:32.368Z,17.20
2018-05-04T22:32:00.576Z,17.20
2018-05-04T22:34:29.541Z,17.20
2018-05-04T22:36:58.120Z,17.20
2018-05-04T22:39:26.286Z,17.20
2018-05-04T22:41:54.822Z,17.20
2018-05-04T22:44:23.024Z,17.10
2018-05-04T22:46:52.127Z,17.10
2018-05-04T22:49:20.755Z,17.10
2018-05-04T22:51:48.954Z,17.10
2018-05-04T22:54:17.920Z,17.00
2018-05-04T22:56:46.625Z,17.00
2018-05-04T22:59:15.600Z,17.00
2018-05-04T23:01:49.623Z,17.00
2018-05-04T23:04:17.828Z,17.00
2018-05-04T23:06:46.032Z,17.00
2018-05-04T23:09:14.244Z,16.90
2018-05-04T23:14:22.875Z,16.80
2018-05-04T23:16:51.072Z,16.70
2018-05-04T23:19:19.272Z,16.70
2018-05-04T23:21:47.493Z,16.70
2018-05-04T23:24:16.728Z,16.80
2018-05-04T23:26:45.696Z,16.60
2018-05-04T23:29:13.959Z,16.60
2018-05-04T23:31:42.188Z,16.60
2018-05-04T23:34:11.045Z,16.60
2018-05-04T23:36:39.524Z,16.50
2018-05-04T23:39:07.720Z,16.60
2018-05-04T23:41:48.441Z,16.60
2018-05-04T23:44:16.637Z,16.60
2018-05-04T23:46:44.840Z,16.60
2018-05-04T23:49:13.861Z,16.60
2018-05-04T23:51:42.080Z,16.50
2018-05-04T23:54:10.284Z,16.50
2018-05-04T23:56:39.368Z,16.50
2018-05-04T23:59:07.829Z,16.50
